sensor_id;sensor_type;location;lat;lon;timestamp;P1;durP1;ratioP1;P2;durP2;ratioP2
61015;SDS011;46902;52.920;6.536;2023-05-09T00:01:46;64.22;;;39.15;;
61015;SDS011;46902;52.920;6.536;2023-05-09T00:04:11;82.00;;;42.65;;
61015;SDS011;46902;52.920;6.536;2023-05-09T00:06:37;67.07;;;40.78;;
61015;SDS011;46902;52.920;6.536;2023-05-09T00:09:03;63.90;;;39.28;;
61015;SDS011;46902;52.920;6.536;2023-05-09T00:11:29;66.38;;;40.53;;
61015;SDS011;46902;52.920;6.536;2023-05-09T00:13:54;69.40;;;39.30;;
61015;SDS011;46902;52.920;6.536;2023-05-09T00:16:20;58.78;;;37.47;;
61015;SDS011;46902;52.920;6.536;2023-05-09T00:18:48;70.72;;;40.30;;
61015;SDS011;46902;52.920;6.536;2023-05-09T00:21:13;66.68;;;37.85;;
61015;SDS011;46902;52.920;6.536;2023-05-09T00:23:39;62.05;;;37.63;;
61015;SDS011;46902;52.920;6.536;2023-05-09T00:26:05;55.08;;;35.90;;
61015;SDS011;46902;52.920;6.536;2023-05-09T00:28:30;58.42;;;36.75;;
61015;SDS011;46902;52.920;6.536;2023-05-09T00:30:56;63.42;;;36.38;;
61015;SDS011;46902;52.920;6.536;2023-05-09T00:33:22;65.38;;;37.67;;
61015;SDS011;46902;52.920;6.536;2023-05-09T00:35:51;59.88;;;35.25;;
61015;SDS011;46902;52.920;6.536;2023-05-09T00:38:21;56.90;;;36.30;;
61015;SDS011;46902;52.920;6.536;2023-05-09T00:40:47;59.20;;;36.50;;
61015;SDS011;46902;52.920;6.536;2023-05-09T00:43:12;53.80;;;34.33;;
61015;SDS011;46902;52.920;6.536;2023-05-09T00:45:38;51.00;;;33.88;;
61015;SDS011;46902;52.920;6.536;2023-05-09T00:48:04;54.42;;;34.03;;
61015;SDS011;46902;52.920;6.536;2023-05-09T00:50:30;57.45;;;34.40;;
61015;SDS011;46902;52.920;6.536;2023-05-09T00:52:56;56.17;;;34.55;;
61015;SDS011;46902;52.920;6.536;2023-05-09T00:55:22;55.80;;;35.40;;
61015;SDS011;46902;52.920;6.536;2023-05-09T00:57:48;52.85;;;34.22;;
61015;SDS011;46902;52.920;6.536;2023-05-09T01:00:13;53.15;;;33.78;;
61015;SDS011;46902;52.920;6.536;2023-05-09T01:02:43;58.78;;;34.30;;
61015;SDS011;46902;52.920;6.536;2023-05-09T01:05:16;57.70;;;34.60;;
61015;SDS011;46902;52.920;6.536;2023-05-09T01:10:22;58.78;;;37.40;;
61015;SDS011;46902;52.920;6.536;2023-05-09T01:12:51;55.40;;;35.00;;
61015;SDS011;46902;52.920;6.536;2023-05-09T01:18:16;58.08;;;34.63;;
61015;SDS011;46902;52.920;6.536;2023-05-09T01:20:46;54.13;;;33.97;;
61015;SDS011;46902;52.920;6.536;2023-05-09T01:31:58;60.80;;;36.58;;
61015;SDS011;46902;52.920;6.536;2023-05-09T01:34:28;51.88;;;34.72;;
61015;SDS011;46902;52.920;6.536;2023-05-09T01:36:57;55.17;;;35.03;;
61015;SDS011;46902;52.920;6.536;2023-05-09T01:39:26;61.13;;;36.80;;
61015;SDS011;46902;52.920;6.536;2023-05-09T01:41:54;55.20;;;35.40;;
61015;SDS011;46902;52.920;6.536;2023-05-09T01:44:21;53.08;;;34.55;;
61015;SDS011;46902;52.920;6.536;2023-05-09T01:46:49;52.35;;;33.70;;
61015;SDS011;46902;52.920;6.536;2023-05-09T01:49:18;58.58;;;36.58;;
61015;SDS011;46902;52.920;6.536;2023-05-09T01:51:45;60.53;;;37.55;;
61015;SDS011;46902;52.920;6.536;2023-05-09T01:54:14;52.38;;;35.60;;
61015;SDS011;46902;52.920;6.536;2023-05-09T01:56:41;61.03;;;38.33;;
61015;SDS011;46902;52.920;6.536;2023-05-09T01:59:07;52.20;;;33.97;;
61015;SDS011;46902;52.920;6.536;2023-05-09T02:01:39;56.17;;;35.67;;
61015;SDS011;46902;52.920;6.536;2023-05-09T02:04:06;54.75;;;36.08;;
61015;SDS011;46902;52.920;6.536;2023-05-09T02:06:32;58.65;;;37.05;;
61015;SDS011;46902;52.920;6.536;2023-05-09T02:09:00;60.15;;;36.60;;
61015;SDS011;46902;52.920;6.536;2023-05-09T02:11:27;61.88;;;37.05;;
61015;SDS011;46902;52.920;6.536;2023-05-09T02:13:52;56.55;;;34.72;;
61015;SDS011;46902;52.920;6.536;2023-05-09T02:16:18;51.50;;;35.10;;
61015;SDS011;46902;52.920;6.536;2023-05-09T02:18:45;53.05;;;34.60;;
61015;SDS011;46902;52.920;6.536;2023-05-09T02:21:11;53.55;;;35.08;;
61015;SDS011;46902;52.920;6.536;2023-05-09T02:23:36;56.85;;;36.00;;
61015;SDS011;46902;52.920;6.536;2023-05-09T02:26:02;64.20;;;35.22;;
61015;SDS011;46902;52.920;6.536;2023-05-09T02:28:28;55.17;;;35.47;;
61015;SDS011;46902;52.920;6.536;2023-05-09T02:30:54;61.72;;;37.10;;
61015;SDS011;46902;52.920;6.536;2023-05-09T02:33:22;59.53;;;38.00;;
61015;SDS011;46902;52.920;6.536;2023-05-09T02:35:49;57.90;;;36.85;;
61015;SDS011;46902;52.920;6.536;2023-05-09T02:38:16;54.22;;;35.33;;
61015;SDS011;46902;52.920;6.536;2023-05-09T02:40:43;53.88;;;36.65;;
61015;SDS011;46902;52.920;6.536;2023-05-09T02:43:11;57.85;;;37.45;;
61015;SDS011;46902;52.920;6.536;2023-05-09T02:45:36;58.83;;;37.53;;
61015;SDS011;46902;52.920;6.536;2023-05-09T02:48:02;64.13;;;37.55;;
61015;SDS011;46902;52.920;6.536;2023-05-09T02:50:28;69.03;;;40.28;;
61015;SDS011;46902;52.920;6.536;2023-05-09T02:52:54;59.78;;;38.00;;
61015;SDS011;46902;52.920;6.536;2023-05-09T02:55:20;61.53;;;37.90;;
61015;SDS011;46902;52.920;6.536;2023-05-09T02:57:45;52.53;;;35.58;;
61015;SDS011;46902;52.920;6.536;2023-05-09T03:00:11;61.92;;;37.28;;
61015;SDS011;46902;52.920;6.536;2023-05-09T03:02:37;51.25;;;35.28;;
61015;SDS011;46902;52.920;6.536;2023-05-09T03:05:03;60.75;;;37.15;;
61015;SDS011;46902;52.920;6.536;2023-05-09T03:07:29;57.17;;;36.95;;
61015;SDS011;46902;52.920;6.536;2023-05-09T03:09:55;54.05;;;35.95;;
61015;SDS011;46902;52.920;6.536;2023-05-09T03:12:21;57.83;;;37.20;;
61015;SDS011;46902;52.920;6.536;2023-05-09T03:14:46;56.90;;;37.83;;
61015;SDS011;46902;52.920;6.536;2023-05-09T03:17:12;56.17;;;36.00;;
61015;SDS011;46902;52.920;6.536;2023-05-09T03:19:41;57.72;;;37.03;;
61015;SDS011;46902;52.920;6.536;2023-05-09T03:22:07;59.13;;;37.95;;
61015;SDS011;46902;52.920;6.536;2023-05-09T03:24:32;67.05;;;39.42;;
61015;SDS011;46902;52.920;6.536;2023-05-09T03:26:58;54.97;;;35.17;;
61015;SDS011;46902;52.920;6.536;2023-05-09T03:29:24;60.45;;;36.33;;
61015;SDS011;46902;52.920;6.536;2023-05-09T03:31:49;59.40;;;37.72;;
61015;SDS011;46902;52.920;6.536;2023-05-09T03:34:15;57.35;;;37.42;;
61015;SDS011;46902;52.920;6.536;2023-05-09T03:36:41;58.72;;;36.97;;
61015;SDS011;46902;52.920;6.536;2023-05-09T03:39:09;64.80;;;37.63;;
61015;SDS011;46902;52.920;6.536;2023-05-09T03:41:35;62.58;;;38.40;;
61015;SDS011;46902;52.920;6.536;2023-05-09T03:44:02;63.13;;;38.22;;
61015;SDS011;46902;52.920;6.536;2023-05-09T03:46:28;72.80;;;41.95;;
61015;SDS011;46902;52.920;6.536;2023-05-09T03:48:54;67.55;;;40.88;;
61015;SDS011;46902;52.920;6.536;2023-05-09T03:51:19;76.18;;;42.30;;
61015;SDS011;46902;52.920;6.536;2023-05-09T03:53:45;63.28;;;40.95;;
61015;SDS011;46902;52.920;6.536;2023-05-09T03:56:11;64.78;;;40.95;;
61015;SDS011;46902;52.920;6.536;2023-05-09T03:58:37;60.63;;;37.92;;
61015;SDS011;46902;52.920;6.536;2023-05-09T04:01:03;80.68;;;45.47;;
61015;SDS011;46902;52.920;6.536;2023-05-09T04:03:29;94.75;;;50.00;;
61015;SDS011;46902;52.920;6.536;2023-05-09T04:05:54;76.03;;;46.58;;
61015;SDS011;46902;52.920;6.536;2023-05-09T04:08:20;88.82;;;48.40;;
61015;SDS011;46902;52.920;6.536;2023-05-09T04:10:46;79.30;;;47.97;;
61015;SDS011;46902;52.920;6.536;2023-05-09T04:13:13;84.43;;;49.80;;
61015;SDS011;46902;52.920;6.536;2023-05-09T04:15:38;93.05;;;51.10;;
61015;SDS011;46902;52.920;6.536;2023-05-09T04:18:04;132.90;;;59.50;;
61015;SDS011;46902;52.920;6.536;2023-05-09T04:20:30;95.80;;;52.03;;
61015;SDS011;46902;52.920;6.536;2023-05-09T04:22:56;99.63;;;51.47;;
61015;SDS011;46902;52.920;6.536;2023-05-09T04:25:22;102.47;;;53.15;;
61015;SDS011;46902;52.920;6.536;2023-05-09T04:27:48;95.35;;;53.28;;
61015;SDS011;46902;52.920;6.536;2023-05-09T04:30:14;89.68;;;51.45;;
61015;SDS011;46902;52.920;6.536;2023-05-09T04:32:40;97.93;;;54.95;;
61015;SDS011;46902;52.920;6.536;2023-05-09T04:35:09;100.82;;;54.25;;
61015;SDS011;46902;52.920;6.536;2023-05-09T04:37:36;116.15;;;57.67;;
61015;SDS011;46902;52.920;6.536;2023-05-09T04:40:02;109.68;;;58.15;;
61015;SDS011;46902;52.920;6.536;2023-05-09T04:42:29;110.05;;;59.88;;
61015;SDS011;46902;52.920;6.536;2023-05-09T04:44:57;96.88;;;57.17;;
61015;SDS011;46902;52.920;6.536;2023-05-09T04:47:23;122.13;;;61.15;;
61015;SDS011;46902;52.920;6.536;2023-05-09T04:49:48;121.15;;;63.30;;
61015;SDS011;46902;52.920;6.536;2023-05-09T04:52:14;113.72;;;58.97;;
61015;SDS011;46902;52.920;6.536;2023-05-09T04:54:40;101.53;;;57.28;;
61015;SDS011;46902;52.920;6.536;2023-05-09T04:57:05;107.00;;;61.55;;
61015;SDS011;46902;52.920;6.536;2023-05-09T04:59:31;102.82;;;59.05;;
61015;SDS011;46902;52.920;6.536;2023-05-09T05:01:56;114.75;;;63.03;;
61015;SDS011;46902;52.920;6.536;2023-05-09T05:04:22;105.55;;;59.97;;
61015;SDS011;46902;52.920;6.536;2023-05-09T05:06:48;111.75;;;62.53;;
61015;SDS011;46902;52.920;6.536;2023-05-09T05:09:13;102.45;;;61.30;;
61015;SDS011;46902;52.920;6.536;2023-05-09T05:11:39;115.10;;;62.83;;
61015;SDS011;46902;52.920;6.536;2023-05-09T05:14:05;94.95;;;59.10;;
61015;SDS011;46902;52.920;6.536;2023-05-09T05:16:30;96.57;;;59.05;;
61015;SDS011;46902;52.920;6.536;2023-05-09T05:18:56;98.90;;;61.65;;
61015;SDS011;46902;52.920;6.536;2023-05-09T05:21:22;112.15;;;64.82;;
61015;SDS011;46902;52.920;6.536;2023-05-09T05:23:47;106.90;;;63.25;;
61015;SDS011;46902;52.920;6.536;2023-05-09T05:26:13;98.88;;;62.03;;
61015;SDS011;46902;52.920;6.536;2023-05-09T05:28:38;85.45;;;56.15;;
61015;SDS011;46902;52.920;6.536;2023-05-09T05:31:04;90.97;;;58.83;;
61015;SDS011;46902;52.920;6.536;2023-05-09T05:33:30;95.32;;;59.15;;
61015;SDS011;46902;52.920;6.536;2023-05-09T05:35:55;91.70;;;58.35;;
61015;SDS011;46902;52.920;6.536;2023-05-09T05:38:21;89.60;;;57.95;;
61015;SDS011;46902;52.920;6.536;2023-05-09T05:40:46;79.97;;;55.15;;
61015;SDS011;46902;52.920;6.536;2023-05-09T05:43:12;80.00;;;55.28;;
61015;SDS011;46902;52.920;6.536;2023-05-09T05:45:38;79.68;;;54.38;;
61015;SDS011;46902;52.920;6.536;2023-05-09T05:48:03;82.82;;;55.88;;
61015;SDS011;46902;52.920;6.536;2023-05-09T05:50:29;105.65;;;60.45;;
61015;SDS011;46902;52.920;6.536;2023-05-09T05:52:55;88.90;;;57.47;;
61015;SDS011;46902;52.920;6.536;2023-05-09T05:55:20;86.80;;;54.80;;
61015;SDS011;46902;52.920;6.536;2023-05-09T05:57:46;91.57;;;56.70;;
61015;SDS011;46902;52.920;6.536;2023-05-09T06:00:12;90.78;;;57.65;;
61015;SDS011;46902;52.920;6.536;2023-05-09T06:02:42;88.93;;;57.63;;
61015;SDS011;46902;52.920;6.536;2023-05-09T06:05:08;88.60;;;56.97;;
61015;SDS011;46902;52.920;6.536;2023-05-09T06:07:35;99.82;;;61.13;;
61015;SDS011;46902;52.920;6.536;2023-05-09T06:10:00;81.10;;;51.20;;
61015;SDS011;46902;52.920;6.536;2023-05-09T06:12:26;54.53;;;40.83;;
61015;SDS011;46902;52.920;6.536;2023-05-09T06:14:52;43.65;;;36.10;;
61015;SDS011;46902;52.920;6.536;2023-05-09T06:17:17;39.67;;;32.67;;
61015;SDS011;46902;52.920;6.536;2023-05-09T06:19:43;43.45;;;33.35;;
61015;SDS011;46902;52.920;6.536;2023-05-09T06:22:09;41.38;;;31.48;;
61015;SDS011;46902;52.920;6.536;2023-05-09T06:24:35;31.15;;;27.00;;
61015;SDS011;46902;52.920;6.536;2023-05-09T06:27:00;31.80;;;26.75;;
61015;SDS011;46902;52.920;6.536;2023-05-09T06:29:26;32.40;;;27.13;;
61015;SDS011;46902;52.920;6.536;2023-05-09T06:31:52;31.80;;;26.95;;
61015;SDS011;46902;52.920;6.536;2023-05-09T06:34:17;33.42;;;28.05;;
61015;SDS011;46902;52.920;6.536;2023-05-09T06:36:43;39.70;;;30.13;;
61015;SDS011;46902;52.920;6.536;2023-05-09T06:39:08;36.00;;;28.30;;
61015;SDS011;46902;52.920;6.536;2023-05-09T06:41:34;37.40;;;28.73;;
61015;SDS011;46902;52.920;6.536;2023-05-09T06:44:00;35.38;;;29.73;;
61015;SDS011;46902;52.920;6.536;2023-05-09T06:46:26;44.47;;;30.00;;
61015;SDS011;46902;52.920;6.536;2023-05-09T06:48:52;38.88;;;29.35;;
61015;SDS011;46902;52.920;6.536;2023-05-09T06:51:18;40.45;;;30.85;;
61015;SDS011;46902;52.920;6.536;2023-05-09T06:53:43;36.65;;;28.98;;
61015;SDS011;46902;52.920;6.536;2023-05-09T06:56:09;40.53;;;30.42;;
61015;SDS011;46902;52.920;6.536;2023-05-09T06:58:35;50.58;;;32.10;;
61015;SDS011;46902;52.920;6.536;2023-05-09T07:01:01;41.47;;;31.77;;
61015;SDS011;46902;52.920;6.536;2023-05-09T07:03:28;44.30;;;32.13;;
61015;SDS011;46902;52.920;6.536;2023-05-09T07:05:54;46.67;;;34.20;;
61015;SDS011;46902;52.920;6.536;2023-05-09T07:08:22;45.28;;;31.92;;
61015;SDS011;46902;52.920;6.536;2023-05-09T07:10:48;48.03;;;33.13;;
61015;SDS011;46902;52.920;6.536;2023-05-09T07:13:14;48.90;;;34.40;;
61015;SDS011;46902;52.920;6.536;2023-05-09T07:15:40;48.65;;;35.10;;
61015;SDS011;46902;52.920;6.536;2023-05-09T07:18:05;47.45;;;34.22;;
61015;SDS011;46902;52.920;6.536;2023-05-09T07:20:31;54.20;;;36.42;;
61015;SDS011;46902;52.920;6.536;2023-05-09T07:22:57;50.20;;;36.33;;
61015;SDS011;46902;52.920;6.536;2023-05-09T07:25:22;48.00;;;35.70;;
61015;SDS011;46902;52.920;6.536;2023-05-09T07:27:48;53.65;;;37.20;;
61015;SDS011;46902;52.920;6.536;2023-05-09T07:30:14;59.53;;;38.90;;
61015;SDS011;46902;52.920;6.536;2023-05-09T07:32:39;55.38;;;37.03;;
61015;SDS011;46902;52.920;6.536;2023-05-09T07:35:05;56.58;;;39.05;;
61015;SDS011;46902;52.920;6.536;2023-05-09T07:37:31;57.67;;;39.53;;
61015;SDS011;46902;52.920;6.536;2023-05-09T07:39:56;58.30;;;39.75;;
61015;SDS011;46902;52.920;6.536;2023-05-09T07:42:22;62.17;;;40.50;;
61015;SDS011;46902;52.920;6.536;2023-05-09T07:44:47;62.50;;;40.10;;
61015;SDS011;46902;52.920;6.536;2023-05-09T07:47:13;60.75;;;40.85;;
61015;SDS011;46902;52.920;6.536;2023-05-09T07:49:39;60.65;;;39.67;;
61015;SDS011;46902;52.920;6.536;2023-05-09T07:52:07;55.90;;;39.10;;
61015;SDS011;46902;52.920;6.536;2023-05-09T07:54:32;52.67;;;38.30;;
61015;SDS011;46902;52.920;6.536;2023-05-09T07:56:58;57.10;;;38.58;;
61015;SDS011;46902;52.920;6.536;2023-05-09T07:59:24;58.63;;;37.35;;
61015;SDS011;46902;52.920;6.536;2023-05-09T08:01:50;56.28;;;37.78;;
61015;SDS011;46902;52.920;6.536;2023-05-09T08:04:15;54.67;;;38.88;;
61015;SDS011;46902;52.920;6.536;2023-05-09T08:06:41;51.10;;;38.20;;
61015;SDS011;46902;52.920;6.536;2023-05-09T08:09:07;56.42;;;39.42;;
61015;SDS011;46902;52.920;6.536;2023-05-09T08:11:32;57.47;;;39.10;;
61015;SDS011;46902;52.920;6.536;2023-05-09T08:13:59;58.25;;;39.35;;
61015;SDS011;46902;52.920;6.536;2023-05-09T08:16:25;53.50;;;38.30;;
61015;SDS011;46902;52.920;6.536;2023-05-09T08:18:51;57.05;;;39.55;;
61015;SDS011;46902;52.920;6.536;2023-05-09T08:21:18;65.40;;;40.67;;
61015;SDS011;46902;52.920;6.536;2023-05-09T08:23:44;62.33;;;40.90;;
61015;SDS011;46902;52.920;6.536;2023-05-09T08:26:09;58.08;;;39.72;;
61015;SDS011;46902;52.920;6.536;2023-05-09T08:28:35;60.15;;;39.55;;
61015;SDS011;46902;52.920;6.536;2023-05-09T08:31:01;58.60;;;40.60;;
61015;SDS011;46902;52.920;6.536;2023-05-09T08:33:26;62.15;;;40.53;;
61015;SDS011;46902;52.920;6.536;2023-05-09T08:35:52;58.40;;;39.30;;
61015;SDS011;46902;52.920;6.536;2023-05-09T08:38:18;57.83;;;39.10;;
61015;SDS011;46902;52.920;6.536;2023-05-09T08:40:44;56.35;;;38.15;;
61015;SDS011;46902;52.920;6.536;2023-05-09T08:43:10;54.42;;;37.60;;
61015;SDS011;46902;52.920;6.536;2023-05-09T08:48:33;51.60;;;35.20;;
61015;SDS011;46902;52.920;6.536;2023-05-09T08:51:03;58.20;;;37.50;;
61015;SDS011;46902;52.920;6.536;2023-05-09T08:53:30;49.42;;;35.45;;
61015;SDS011;46902;52.920;6.536;2023-05-09T08:56:00;48.40;;;34.90;;
61015;SDS011;46902;52.920;6.536;2023-05-09T08:58:27;52.17;;;35.00;;
61015;SDS011;46902;52.920;6.536;2023-05-09T09:00:54;50.95;;;34.33;;
61015;SDS011;46902;52.920;6.536;2023-05-09T09:03:20;54.03;;;35.22;;
61015;SDS011;46902;52.920;6.536;2023-05-09T09:05:47;50.75;;;34.35;;
61015;SDS011;46902;52.920;6.536;2023-05-09T09:08:14;52.47;;;35.30;;
61015;SDS011;46902;52.920;6.536;2023-05-09T09:10:41;48.55;;;34.10;;
61015;SDS011;46902;52.920;6.536;2023-05-09T09:13:11;48.08;;;32.90;;
61015;SDS011;46902;52.920;6.536;2023-05-09T09:15:37;49.13;;;32.65;;
61015;SDS011;46902;52.920;6.536;2023-05-09T09:18:10;45.80;;;32.50;;
61015;SDS011;46902;52.920;6.536;2023-05-09T09:20:41;44.75;;;32.53;;
61015;SDS011;46902;52.920;6.536;2023-05-09T09:23:11;44.47;;;30.58;;
61015;SDS011;46902;52.920;6.536;2023-05-09T09:25:44;47.10;;;31.20;;
61015;SDS011;46902;52.920;6.536;2023-05-09T09:28:11;41.70;;;27.92;;
61015;SDS011;46902;52.920;6.536;2023-05-09T09:30:42;42.45;;;28.58;;
61015;SDS011;46902;52.920;6.536;2023-05-09T09:33:20;42.63;;;29.65;;
61015;SDS011;46902;52.920;6.536;2023-05-09T09:35:48;40.65;;;29.33;;
61015;SDS011;46902;52.920;6.536;2023-05-09T09:38:16;38.85;;;29.77;;
61015;SDS011;46902;52.920;6.536;2023-05-09T09:40:56;36.85;;;27.58;;
61015;SDS011;46902;52.920;6.536;2023-05-09T09:43:29;35.60;;;27.98;;
61015;SDS011;46902;52.920;6.536;2023-05-09T09:45:55;36.30;;;27.63;;
61015;SDS011;46902;52.920;6.536;2023-05-09T09:48:25;34.13;;;26.60;;
61015;SDS011;46902;52.920;6.536;2023-05-09T09:50:54;36.92;;;25.75;;
61015;SDS011;46902;52.920;6.536;2023-05-09T09:53:25;28.88;;;24.40;;
61015;SDS011;46902;52.920;6.536;2023-05-09T09:55:54;30.95;;;24.40;;
61015;SDS011;46902;52.920;6.536;2023-05-09T09:58:19;30.45;;;24.40;;
61015;SDS011;46902;52.920;6.536;2023-05-09T10:03:35;33.15;;;25.17;;
61015;SDS011;46902;52.920;6.536;2023-05-09T10:06:02;31.42;;;24.92;;
61015;SDS011;46902;52.920;6.536;2023-05-09T10:08:27;32.65;;;24.33;;
61015;SDS011;46902;52.920;6.536;2023-05-09T10:10:53;28.83;;;22.60;;
61015;SDS011;46902;52.920;6.536;2023-05-09T10:13:18;30.48;;;23.67;;
61015;SDS011;46902;52.920;6.536;2023-05-09T10:15:44;28.63;;;22.10;;
61015;SDS011;46902;52.920;6.536;2023-05-09T10:18:11;27.83;;;22.23;;
61015;SDS011;46902;52.920;6.536;2023-05-09T10:20:42;28.80;;;22.92;;
61015;SDS011;46902;52.920;6.536;2023-05-09T10:23:08;28.15;;;21.60;;
61015;SDS011;46902;52.920;6.536;2023-05-09T10:25:43;28.00;;;20.88;;
61015;SDS011;46902;52.920;6.536;2023-05-09T10:28:17;29.23;;;20.15;;
61015;SDS011;46902;52.920;6.536;2023-05-09T10:33:13;27.15;;;20.85;;
61015;SDS011;46902;52.920;6.536;2023-05-09T10:35:43;30.27;;;20.85;;
61015;SDS011;46902;52.920;6.536;2023-05-09T10:38:10;25.40;;;19.33;;
61015;SDS011;46902;52.920;6.536;2023-05-09T10:40:37;31.77;;;20.27;;
61015;SDS011;46902;52.920;6.536;2023-05-09T10:43:04;24.85;;;20.25;;
61015;SDS011;46902;52.920;6.536;2023-05-09T10:45:31;29.08;;;21.00;;
61015;SDS011;46902;52.920;6.536;2023-05-09T10:47:57;25.13;;;20.35;;
61015;SDS011;46902;52.920;6.536;2023-05-09T10:50:25;27.25;;;20.88;;
61015;SDS011;46902;52.920;6.536;2023-05-09T11:00:48;24.77;;;19.35;;
61015;SDS011;46902;52.920;6.536;2023-05-09T11:03:14;23.75;;;18.58;;
61015;SDS011;46902;52.920;6.536;2023-05-09T11:05:43;25.88;;;19.48;;
61015;SDS011;46902;52.920;6.536;2023-05-09T11:08:19;22.02;;;19.35;;
61015;SDS011;46902;52.920;6.536;2023-05-09T11:10:47;23.88;;;20.05;;
61015;SDS011;46902;52.920;6.536;2023-05-09T11:13:16;22.25;;;18.83;;
61015;SDS011;46902;52.920;6.536;2023-05-09T11:15:50;23.75;;;18.67;;
61015;SDS011;46902;52.920;6.536;2023-05-09T11:18:27;16.65;;;12.50;;
61015;SDS011;46902;52.920;6.536;2023-05-09T11:20:54;14.45;;;11.25;;
61015;SDS011;46902;52.920;6.536;2023-05-09T11:23:21;14.93;;;10.50;;
61015;SDS011;46902;52.920;6.536;2023-05-09T11:25:51;14.18;;;10.85;;
61015;SDS011;46902;52.920;6.536;2023-05-09T11:28:27;13.13;;;11.70;;
61015;SDS011;46902;52.920;6.536;2023-05-09T11:33:37;13.20;;;11.75;;
61015;SDS011;46902;52.920;6.536;2023-05-09T11:38:51;13.80;;;10.35;;
61015;SDS011;46902;52.920;6.536;2023-05-09T11:44:24;12.68;;;9.88;;
61015;SDS011;46902;52.920;6.536;2023-05-09T11:46:51;15.65;;;10.00;;
61015;SDS011;46902;52.920;6.536;2023-05-09T11:49:17;12.30;;;10.15;;
61015;SDS011;46902;52.920;6.536;2023-05-09T11:51:44;15.90;;;10.75;;
61015;SDS011;46902;52.920;6.536;2023-05-09T11:54:09;16.00;;;10.93;;
61015;SDS011;46902;52.920;6.536;2023-05-09T11:56:38;12.23;;;9.95;;
61015;SDS011;46902;52.920;6.536;2023-05-09T11:59:05;13.02;;;10.82;;
61015;SDS011;46902;52.920;6.536;2023-05-09T12:01:31;15.32;;;11.02;;
61015;SDS011;46902;52.920;6.536;2023-05-09T12:03:57;15.13;;;10.75;;
61015;SDS011;46902;52.920;6.536;2023-05-09T12:06:23;13.48;;;10.45;;
61015;SDS011;46902;52.920;6.536;2023-05-09T12:08:50;12.82;;;9.48;;
61015;SDS011;46902;52.920;6.536;2023-05-09T12:11:17;16.55;;;10.38;;
61015;SDS011;46902;52.920;6.536;2023-05-09T12:13:46;13.85;;;10.82;;
61015;SDS011;46902;52.920;6.536;2023-05-09T12:16:13;14.48;;;10.55;;
61015;SDS011;46902;52.920;6.536;2023-05-09T12:18:44;13.13;;;10.20;;
61015;SDS011;46902;52.920;6.536;2023-05-09T12:21:14;13.80;;;11.25;;
61015;SDS011;46902;52.920;6.536;2023-05-09T12:23:40;13.57;;;11.27;;
61015;SDS011;46902;52.920;6.536;2023-05-09T12:26:06;13.52;;;11.63;;
61015;SDS011;46902;52.920;6.536;2023-05-09T12:28:32;16.02;;;12.35;;
61015;SDS011;46902;52.920;6.536;2023-05-09T12:30:58;14.73;;;11.73;;
61015;SDS011;46902;52.920;6.536;2023-05-09T12:33:25;15.70;;;12.57;;
61015;SDS011;46902;52.920;6.536;2023-05-09T12:36:24;13.65;;;11.57;;
61015;SDS011;46902;52.920;6.536;2023-05-09T12:38:55;14.52;;;12.07;;
61015;SDS011;46902;52.920;6.536;2023-05-09T12:41:20;13.88;;;11.30;;
61015;SDS011;46902;52.920;6.536;2023-05-09T12:43:48;16.58;;;11.80;;
61015;SDS011;46902;52.920;6.536;2023-05-09T12:46:17;16.45;;;12.40;;
61015;SDS011;46902;52.920;6.536;2023-05-09T12:48:44;16.23;;;13.07;;
61015;SDS011;46902;52.920;6.536;2023-05-09T12:51:11;15.00;;;12.82;;
61015;SDS011;46902;52.920;6.536;2023-05-09T12:53:41;17.00;;;15.30;;
61015;SDS011;46902;52.920;6.536;2023-05-09T12:56:11;19.13;;;16.02;;
61015;SDS011;46902;52.920;6.536;2023-05-09T12:58:47;20.17;;;16.67;;
61015;SDS011;46902;52.920;6.536;2023-05-09T13:01:15;19.30;;;17.15;;
61015;SDS011;46902;52.920;6.536;2023-05-09T13:03:41;20.08;;;17.95;;
61015;SDS011;46902;52.920;6.536;2023-05-09T13:06:12;20.55;;;16.98;;
61015;SDS011;46902;52.920;6.536;2023-05-09T13:08:38;20.73;;;17.92;;
61015;SDS011;46902;52.920;6.536;2023-05-09T13:11:04;21.63;;;19.42;;
61015;SDS011;46902;52.920;6.536;2023-05-09T13:13:33;21.45;;;19.15;;
61015;SDS011;46902;52.920;6.536;2023-05-09T13:15:58;23.30;;;18.92;;
61015;SDS011;46902;52.920;6.536;2023-05-09T13:18:24;24.20;;;19.38;;
61015;SDS011;46902;52.920;6.536;2023-05-09T13:20:50;22.23;;;19.33;;
61015;SDS011;46902;52.920;6.536;2023-05-09T13:23:16;24.95;;;19.75;;
61015;SDS011;46902;52.920;6.536;2023-05-09T13:25:42;25.17;;;21.05;;
61015;SDS011;46902;52.920;6.536;2023-05-09T13:28:08;21.52;;;19.33;;
61015;SDS011;46902;52.920;6.536;2023-05-09T13:30:33;22.75;;;20.30;;
61015;SDS011;46902;52.920;6.536;2023-05-09T13:32:59;22.27;;;19.58;;
61015;SDS011;46902;52.920;6.536;2023-05-09T13:35:24;26.67;;;20.75;;
61015;SDS011;46902;52.920;6.536;2023-05-09T13:37:50;26.40;;;21.95;;
61015;SDS011;46902;52.920;6.536;2023-05-09T13:40:16;23.02;;;20.55;;
61015;SDS011;46902;52.920;6.536;2023-05-09T13:42:41;23.67;;;20.23;;
61015;SDS011;46902;52.920;6.536;2023-05-09T13:45:07;25.75;;;22.95;;
61015;SDS011;46902;52.920;6.536;2023-05-09T13:47:33;26.55;;;20.83;;
61015;SDS011;46902;52.920;6.536;2023-05-09T13:49:59;25.15;;;21.60;;
61015;SDS011;46902;52.920;6.536;2023-05-09T13:52:24;22.88;;;19.83;;
61015;SDS011;46902;52.920;6.536;2023-05-09T13:54:50;23.70;;;21.23;;
61015;SDS011;46902;52.920;6.536;2023-05-09T13:57:16;23.42;;;21.05;;
61015;SDS011;46902;52.920;6.536;2023-05-09T13:59:41;24.20;;;20.27;;
61015;SDS011;46902;52.920;6.536;2023-05-09T14:02:07;22.85;;;20.35;;
61015;SDS011;46902;52.920;6.536;2023-05-09T14:04:34;24.88;;;22.17;;
61015;SDS011;46902;52.920;6.536;2023-05-09T14:07:00;23.15;;;20.35;;
61015;SDS011;46902;52.920;6.536;2023-05-09T14:09:26;24.67;;;21.33;;
61015;SDS011;46902;52.920;6.536;2023-05-09T14:11:53;22.55;;;20.13;;
61015;SDS011;46902;52.920;6.536;2023-05-09T14:14:21;26.52;;;20.95;;
61015;SDS011;46902;52.920;6.536;2023-05-09T14:16:48;24.88;;;21.92;;
61015;SDS011;46902;52.920;6.536;2023-05-09T14:19:14;24.85;;;21.92;;
61015;SDS011;46902;52.920;6.536;2023-05-09T14:21:40;22.42;;;19.90;;
61015;SDS011;46902;52.920;6.536;2023-05-09T14:24:07;22.83;;;20.50;;
61015;SDS011;46902;52.920;6.536;2023-05-09T14:26:33;22.83;;;19.50;;
61015;SDS011;46902;52.920;6.536;2023-05-09T14:28:59;20.52;;;18.40;;
61015;SDS011;46902;52.920;6.536;2023-05-09T14:31:25;19.73;;;17.73;;
61015;SDS011;46902;52.920;6.536;2023-05-09T14:33:51;18.60;;;16.80;;
61015;SDS011;46902;52.920;6.536;2023-05-09T14:36:16;18.23;;;16.52;;
61015;SDS011;46902;52.920;6.536;2023-05-09T14:38:42;17.92;;;16.00;;
61015;SDS011;46902;52.920;6.536;2023-05-09T14:41:09;17.73;;;15.52;;
61015;SDS011;46902;52.920;6.536;2023-05-09T14:43:35;18.60;;;16.65;;
61015;SDS011;46902;52.920;6.536;2023-05-09T14:46:00;17.05;;;15.27;;
61015;SDS011;46902;52.920;6.536;2023-05-09T14:48:26;17.88;;;16.05;;
61015;SDS011;46902;52.920;6.536;2023-05-09T14:50:52;17.38;;;15.00;;
61015;SDS011;46902;52.920;6.536;2023-05-09T14:53:21;16.63;;;13.48;;
61015;SDS011;46902;52.920;6.536;2023-05-09T14:55:47;13.27;;;11.88;;
61015;SDS011;46902;52.920;6.536;2023-05-09T14:58:13;15.27;;;12.98;;